Time;durP1;ratioP1;P1;durP2;ratioP2;P2;SDS_P1;SDS_P2;PMS_P1;PMS_P2;Temp;Humidity;BMP_temperature;BMP_pressure;BME280_temperature;BME280_humidity;BME280_pressure;Samples;Min_cycle;Max_cycle;Signal;HPM_P1;HPM_P2
2023/08/14 00:01:58;;;;;;;;;;;;;;;27.75;41.48;101063.81;5077523;28;1905;-40
2023/08/14 00:04:23;;;;;;;;;;;;;;;27.77;41.83;101060.06;5076990;28;1161;-40
2023/08/14 00:06:49;;;;;;;;;;;;;;;27.80;41.52;101063.25;5053836;28;894;-39
2023/08/14 00:09:14;;;;;;;;;;;;;;;27.70;41.86;101059.94;5071082;28;1163;-37
2023/08/14 00:11:40;;;;;;;;;;;;;;;27.78;41.62;101064.47;5051580;28;1156;-39
2023/08/14 00:14:05;;;;;;;;;;;;;;;27.85;41.02;101060.00;5076947;28;1067;-40
2023/08/14 00:16:31;;;;;;;;;;;;;;;27.84;41.13;101063.75;5077473;28;1158;-36
2023/08/14 00:18:56;;;;;;;;;;;;;;;27.72;41.70;101056.06;5060421;28;903;-39
2023/08/14 00:21:22;;;;;;;;;;;;;;;27.89;41.03;101058.63;5076382;28;1988;-37
2023/08/14 00:23:48;;;;;;;;;;;;;;;27.94;40.89;101061.66;5077045;28;1135;-41
2023/08/14 00:26:13;;;;;;;;;;;;;;;28.17;40.08;101059.91;5070589;28;1074;-33
2023/08/14 00:28:39;;;;;;;;;;;;;;;27.99;40.39;101050.28;5052643;28;1329;-37
2023/08/14 00:31:06;;;;;;;;;;;;;;;28.08;39.86;101049.19;5041653;28;1127;-37
2023/08/14 00:33:32;;;;;;;;;;;;;;;27.96;39.98;101043.34;5052448;28;1048;-37
2023/08/14 00:35:57;;;;;;;;;;;;;;;27.94;39.80;101041.88;5058964;28;1557;-38
2023/08/14 00:38:23;;;;;;;;;;;;;;;27.86;40.09;101050.88;5077207;28;1110;-39
2023/08/14 00:40:48;;;;;;;;;;;;;;;27.79;40.05;101042.66;5059212;28;1914;-40
2023/08/14 00:43:14;;;;;;;;;;;;;;;28.04;39.49;101041.63;5059029;28;1068;-38
2023/08/14 00:45:39;;;;;;;;;;;;;;;27.99;39.31;101039.47;5076929;28;1070;-37
2023/08/14 00:48:05;;;;;;;;;;;;;;;28.04;39.17;101036.22;5076836;28;1066;-38
2023/08/14 00:50:31;;;;;;;;;;;;;;;28.23;38.85;101041.09;5055929;28;1207;-37
2023/08/14 00:52:57;;;;;;;;;;;;;;;28.07;39.27;101041.25;5070323;28;1059;-38
2023/08/14 00:55:26;;;;;;;;;;;;;;;27.97;39.68;101036.09;5040308;28;1186;-35
2023/08/14 00:57:52;;;;;;;;;;;;;;;27.97;39.15;101033.38;5070234;28;1039;-37
2023/08/14 01:00:17;;;;;;;;;;;;;;;28.08;38.92;101038.34;5076702;28;1203;-36
2023/08/14 01:02:43;;;;;;;;;;;;;;;28.11;39.22;101038.00;5058745;28;1910;-38
2023/08/14 01:05:09;;;;;;;;;;;;;;;27.95;39.32;101038.13;5069443;28;1193;-39
2023/08/14 01:07:35;;;;;;;;;;;;;;;27.98;39.19;101041.31;5069557;28;846;-40
2023/08/14 01:10:02;;;;;;;;;;;;;;;28.03;38.90;101040.75;5076852;28;1210;-34
2023/08/14 01:12:47;;;;;;;;;;;;;;;28.05;38.84;101041.44;5058474;28;1024;-35
2023/08/14 01:15:20;;;;;;;;;;;;;;;27.90;38.88;101035.97;5060396;28;1036;-39
2023/08/14 01:17:48;;;;;;;;;;;;;;;27.78;39.70;101034.75;5034909;28;1045;-39
2023/08/14 01:20:14;;;;;;;;;;;;;;;27.82;38.90;101025.22;5049297;28;1083;-39
2023/08/14 01:22:43;;;;;;;;;;;;;;;28.03;38.63;101024.53;5075977;28;1914;-39
2023/08/14 01:25:18;;;;;;;;;;;;;;;27.99;38.81;101026.75;5058718;28;1064;-37
2023/08/14 01:27:44;;;;;;;;;;;;;;;27.97;38.70;101034.25;5075821;28;1075;-37
2023/08/14 01:30:09;;;;;;;;;;;;;;;27.95;38.55;101028.16;5052089;28;1090;-38
2023/08/14 01:32:35;;;;;;;;;;;;;;;28.02;38.02;101035.53;5042939;28;1160;-37
2023/08/14 01:35:01;;;;;;;;;;;;;;;27.99;38.51;101032.16;5076056;28;1019;-35
2023/08/14 01:37:29;;;;;;;;;;;;;;;28.19;38.50;101031.69;5039357;28;1119;-35
2023/08/14 01:40:14;;;;;;;;;;;;;;;27.99;38.46;101040.28;5050950;28;1097;-39
2023/08/14 01:42:40;;;;;;;;;;;;;;;28.07;38.66;101041.25;5047775;28;1918;-35
2023/08/14 01:45:11;;;;;;;;;;;;;;;28.03;38.87;101038.06;5054293;28;1079;-36
2023/08/14 01:47:36;;;;;;;;;;;;;;;27.97;38.69;101027.97;5058268;28;1206;-39
2023/08/14 01:50:02;;;;;;;;;;;;;;;27.92;39.02;101038.50;5075819;28;1043;-39
2023/08/14 01:52:28;;;;;;;;;;;;;;;27.82;39.24;101033.34;5076061;28;1222;-35
2023/08/14 01:54:58;;;;;;;;;;;;;;;28.00;38.64;101027.63;5049821;28;1159;-38
2023/08/14 01:57:23;;;;;;;;;;;;;;;27.94;38.63;101029.19;5075683;28;1055;-38
2023/08/14 01:59:49;;;;;;;;;;;;;;;27.95;38.62;101024.59;5057952;28;1230;-38
2023/08/14 02:02:14;;;;;;;;;;;;;;;27.94;39.04;101020.25;5058250;28;1910;-37
2023/08/14 02:04:40;;;;;;;;;;;;;;;27.98;38.64;101016.13;5075454;28;1024;-35
2023/08/14 02:07:06;;;;;;;;;;;;;;;27.99;38.69;101013.25;5064200;28;953;-35
2023/08/14 02:09:32;;;;;;;;;;;;;;;27.95;39.06;101020.06;5071797;28;1163;-37
2023/08/14 02:11:58;;;;;;;;;;;;;;;28.01;38.91;101012.25;5075939;28;1119;-37
2023/08/14 02:14:23;;;;;;;;;;;;;;;27.96;38.77;101008.19;5057482;28;1063;-37
2023/08/14 02:16:49;;;;;;;;;;;;;;;27.71;39.60;101010.28;5075596;28;1047;-35
2023/08/14 02:19:14;;;;;;;;;;;;;;;28.14;38.41;101001.63;5063250;28;1078;-36
2023/08/14 02:21:40;;;;;;;;;;;;;;;28.07;38.63;101012.34;5046590;28;1909;-38
2023/08/14 02:24:06;;;;;;;;;;;;;;;27.96;39.00;101015.50;5062262;28;1019;-40
2023/08/14 02:26:32;;;;;;;;;;;;;;;27.97;38.87;101015.31;5075470;28;1055;-40
2023/08/14 02:28:57;;;;;;;;;;;;;;;27.85;39.22;101009.50;5057749;28;1354;-36
2023/08/14 02:31:23;;;;;;;;;;;;;;;27.92;39.27;101012.31;5072283;28;1095;-38
2023/08/14 02:33:48;;;;;;;;;;;;;;;27.72;39.64;101014.66;5075540;28;1116;-37
2023/08/14 02:36:14;;;;;;;;;;;;;;;28.07;38.24;101014.19;5075635;28;1103;-41
2023/08/14 02:38:39;;;;;;;;;;;;;;;28.17;38.97;101019.34;5075392;28;1051;-40
2023/08/14 02:41:06;;;;;;;;;;;;;;;27.90;39.06;101018.91;5075577;28;1969;-38
2023/08/14 02:43:32;;;;;;;;;;;;;;;27.97;38.77;101011.75;5046484;28;1127;-37
2023/08/14 02:45:57;;;;;;;;;;;;;;;27.96;39.41;101015.50;5068874;28;1136;-39
2023/08/14 02:48:23;;;;;;;;;;;;;;;27.94;39.24;101017.53;5078648;28;1008;-35
2023/08/14 02:50:49;;;;;;;;;;;;;;;27.89;39.33;101012.69;5061091;28;1266;-40
2023/08/14 02:53:14;;;;;;;;;;;;;;;27.96;39.15;101012.78;5079047;28;1146;-38
2023/08/14 02:55:40;;;;;;;;;;;;;;;27.84;39.38;101013.19;5065440;28;992;-38
2023/08/14 02:58:06;;;;;;;;;;;;;;;27.81;39.21;101004.63;5074444;28;1143;-39
2023/08/14 03:00:31;;;;;;;;;;;;;;;27.79;39.26;101010.22;5060727;28;1969;-38
2023/08/14 03:02:57;;;;;;;;;;;;;;;27.71;39.50;101003.00;5079200;28;1186;-38
2023/08/14 03:05:22;;;;;;;;;;;;;;;27.80;39.19;101006.50;5060970;28;1249;-36
2023/08/14 03:07:48;;;;;;;;;;;;;;;27.80;39.54;101009.19;5048915;28;1098;-37
2023/08/14 03:10:13;;;;;;;;;;;;;;;27.78;39.19;101013.94;5060545;28;1035;-37
2023/08/14 03:12:39;;;;;;;;;;;;;;;27.80;39.04;101005.63;5078571;28;992;-37
2023/08/14 03:15:05;;;;;;;;;;;;;;;27.84;39.30;101005.09;5059916;28;1099;-36
2023/08/14 03:17:30;;;;;;;;;;;;;;;28.42;38.50;101011.88;5078842;28;1055;-37
2023/08/14 03:19:56;;;;;;;;;;;;;;;27.98;38.95;101016.13;5046383;28;938;-36
2023/08/14 03:22:21;;;;;;;;;;;;;;;27.26;42.50;101016.28;5078663;28;1971;-41
2023/08/14 03:24:47;;;;;;;;;;;;;;;27.49;41.68;101016.28;5060726;28;1056;-42
2023/08/14 03:27:12;;;;;;;;;;;;;;;27.02;42.61;101010.84;5060134;28;1099;-39
2023/08/14 03:29:38;;;;;;;;;;;;;;;26.86;41.55;101017.09;5059525;28;2806;-42
2023/08/14 03:32:04;;;;;;;;;;;;;;;27.07;42.54;101010.31;5035099;28;1876;-42
2023/08/14 03:34:30;;;;;;;;;;;;;;;27.13;42.68;101006.91;5061730;28;2075;-41
2023/08/14 03:36:56;;;;;;;;;;;;;;;26.95;43.84;101009.81;5039656;28;2036;-40
2023/08/14 03:39:22;;;;;;;;;;;;;;;27.22;42.32;101020.34;5039659;28;2486;-40
2023/08/14 03:41:47;;;;;;;;;;;;;;;27.43;41.50;101011.63;5044905;28;1971;-36
2023/08/14 03:44:13;;;;;;;;;;;;;;;26.26;45.64;101032.72;5060597;28;1913;-42
2023/08/14 03:46:38;;;;;;;;;;;;;;;25.75;47.24;101015.75;5057632;28;1941;-40
2023/08/14 03:49:05;;;;;;;;;;;;;;;26.50;44.26;101018.41;5070270;28;1120;-39
2023/08/14 03:51:30;;;;;;;;;;;;;;;27.04;42.84;101021.47;5059437;28;1501;-40
2023/08/14 03:53:56;;;;;;;;;;;;;;;27.48;42.19;101014.63;5077529;28;1044;-42
2023/08/14 03:56:22;;;;;;;;;;;;;;;27.94;40.55;101018.38;5043374;28;1123;-38
2023/08/14 03:58:47;;;;;;;;;;;;;;;27.89;40.53;101028.06;5064538;28;1148;-41
2023/08/14 04:01:13;;;;;;;;;;;;;;;27.83;41.08;101024.19;5059243;28;1909;-40
2023/08/14 04:03:38;;;;;;;;;;;;;;;27.77;40.18;101014.97;5059409;28;1126;-38
2023/08/14 04:06:04;;;;;;;;;;;;;;;27.74;39.75;101026.97;5077166;28;1099;-40
2023/08/14 04:08:30;;;;;;;;;;;;;;;27.93;39.24;101032.91;5062086;28;889;-39
2023/08/14 04:10:57;;;;;;;;;;;;;;;28.53;38.11;101031.38;5052844;28;1059;-39
2023/08/14 04:13:26;;;;;;;;;;;;;;;28.53;38.28;101029.50;5059301;28;1310;-41
2023/08/14 04:15:59;;;;;;;;;;;;;;;28.63;38.17;101036.50;5049375;28;1853;-42
2023/08/14 04:18:26;;;;;;;;;;;;;;;28.65;37.62;101037.16;5059476;28;1164;-41
2023/08/14 04:20:52;;;;;;;;;;;;;;;27.55;35.08;101025.56;5043684;28;1972;-39
2023/08/14 04:23:17;;;;;;;;;;;;;;;28.05;34.11;101027.91;5077125;28;1032;-41
2023/08/14 04:25:43;;;;;;;;;;;;;;;28.46;36.78;101040.22;5076623;28;1111;-42
2023/08/14 04:28:09;;;;;;;;;;;;;;;28.70;36.25;101032.00;5059391;28;1359;-43
2023/08/14 04:30:34;;;;;;;;;;;;;;;28.87;35.81;101037.22;5076646;28;1083;-42
2023/08/14 04:33:00;;;;;;;;;;;;;;;28.87;35.92;101045.34;5058509;28;877;-37
2023/08/14 04:35:26;;;;;;;;;;;;;;;28.35;36.49;101037.97;5054675;28;1232;-42
2023/08/14 04:37:51;;;;;;;;;;;;;;;28.34;36.66;101031.72;5058661;28;1104;-42
2023/08/14 04:40:17;;;;;;;;;;;;;;;28.39;34.67;101038.44;5058461;28;1103;-42
2023/08/14 04:42:42;;;;;;;;;;;;;;;28.27;35.98;101041.56;5076743;28;1905;-42
2023/08/14 04:45:08;;;;;;;;;;;;;;;28.14;36.20;101046.78;5043003;28;2443;-40
2023/08/14 04:47:34;;;;;;;;;;;;;;;28.07;36.66;101043.94;5057969;28;1039;-42
2023/08/14 04:50:00;;;;;;;;;;;;;;;28.17;37.28;101043.69;5055953;28;1119;-42
2023/08/14 04:52:25;;;;;;;;;;;;;;;28.18;37.33;101048.06;5065572;28;1048;-43
2023/08/14 04:54:52;;;;;;;;;;;;;;;28.27;36.79;101049.69;5058351;28;1325;-41
2023/08/14 04:57:18;;;;;;;;;;;;;;;28.24;36.65;101047.34;5039216;28;1162;-43
2023/08/14 04:59:44;;;;;;;;;;;;;;;28.31;36.99;101055.59;5053542;28;1088;-41
2023/08/14 05:02:10;;;;;;;;;;;;;;;28.30;37.38;101060.13;5058412;28;1949;-42
2023/08/14 05:04:36;;;;;;;;;;;;;;;28.64;36.80;101063.41;5058450;28;1210;-41
2023/08/14 05:07:02;;;;;;;;;;;;;;;28.80;37.07;101061.50;5076713;28;1083;-41
2023/08/14 05:09:28;;;;;;;;;;;;;;;28.94;37.43;101057.97;5041025;28;1295;-41
2023/08/14 05:11:56;;;;;;;;;;;;;;;28.94;37.08;101059.84;5058716;28;1362;-41
2023/08/14 05:14:22;;;;;;;;;;;;;;;28.91;39.10;101073.75;5058191;28;1211;-44
2023/08/14 05:16:48;;;;;;;;;;;;;;;28.84;38.61;101065.53;5058432;28;1158;-41
2023/08/14 05:19:13;;;;;;;;;;;;;;;29.13;37.84;101060.31;5058594;28;1111;-42
2023/08/14 05:21:39;;;;;;;;;;;;;;;29.03;38.86;101066.03;5038254;28;1903;-40
2023/08/14 05:24:05;;;;;;;;;;;;;;;29.01;38.06;101070.78;5052649;28;1115;-42
2023/08/14 05:26:30;;;;;;;;;;;;;;;29.14;38.36;101060.13;5076499;28;1087;-41
2023/08/14 05:28:56;;;;;;;;;;;;;;;29.13;38.22;101068.44;5076281;28;1245;-40
2023/08/14 05:31:21;;;;;;;;;;;;;;;29.04;38.74;101057.72;5076153;28;1218;-43
2023/08/14 05:33:47;;;;;;;;;;;;;;;29.00;38.48;101066.38;5062856;28;1016;-43
2023/08/14 05:36:12;;;;;;;;;;;;;;;28.73;38.94;101062.25;5076271;28;1159;-43
2023/08/14 05:38:38;;;;;;;;;;;;;;;28.83;36.99;101061.13;5075705;28;1112;-42
2023/08/14 05:41:03;;;;;;;;;;;;;;;28.92;37.49;101064.59;5075691;28;1988;-43
2023/08/14 05:43:29;;;;;;;;;;;;;;;28.78;37.51;101058.16;5074775;28;1063;-42
2023/08/14 05:45:54;;;;;;;;;;;;;;;28.84;37.76;101071.78;5068523;28;1123;-43
2023/08/14 05:48:21;;;;;;;;;;;;;;;29.02;38.12;101056.22;5075831;28;1111;-42
2023/08/14 05:50:48;;;;;;;;;;;;;;;29.23;37.22;101065.44;5075872;28;1075;-42
2023/08/14 05:53:13;;;;;;;;;;;;;;;29.17;38.19;101070.59;5075991;28;1104;-39
2023/08/14 05:55:39;;;;;;;;;;;;;;;29.13;38.07;101050.31;5074660;28;1022;-40
2023/08/14 05:58:06;;;;;;;;;;;;;;;29.25;38.53;101075.03;5061564;28;1175;-38
2023/08/14 06:00:31;;;;;;;;;;;;;;;29.23;37.78;101058.13;5075692;28;1031;-39
2023/08/14 06:02:57;;;;;;;;;;;;;;;29.37;39.53;101061.00;5075211;28;1984;-42
2023/08/14 06:05:23;;;;;;;;;;;;;;;29.32;38.72;101062.44;5075412;28;1023;-44
2023/08/14 06:07:48;;;;;;;;;;;;;;;29.14;36.94;101068.25;5073878;28;1445;-42
2023/08/14 06:10:14;;;;;;;;;;;;;;;28.98;37.76;101063.03;5064599;28;1227;-43
2023/08/14 06:12:40;;;;;;;;;;;;;;;28.71;38.27;101069.72;5076121;28;1067;-43
2023/08/14 06:15:06;;;;;;;;;;;;;;;28.80;38.46;101058.81;5075367;28;1138;-43
2023/08/14 06:17:34;;;;;;;;;;;;;;;28.91;37.55;101069.16;5062034;28;1050;-42
2023/08/14 06:20:00;;;;;;;;;;;;;;;28.89;37.22;101068.53;5077367;28;1071;-42
2023/08/14 06:22:25;;;;;;;;;;;;;;;28.98;38.29;101074.69;5061852;28;1918;-41
2023/08/14 06:24:51;;;;;;;;;;;;;;;29.07;36.36;101075.44;5079355;28;1131;-43
2023/08/14 06:27:16;;;;;;;;;;;;;;;28.75;36.50;101081.03;5079901;28;1121;-42
2023/08/14 06:29:42;;;;;;;;;;;;;;;28.77;37.04;101084.41;5079706;28;1071;-42
2023/08/14 06:32:08;;;;;;;;;;;;;;;28.81;37.12;101090.28;5076335;28;1138;-42
2023/08/14 06:34:33;;;;;;;;;;;;;;;28.80;37.20;101081.31;5068238;28;1532;-43
2023/08/14 06:36:59;;;;;;;;;;;;;;;29.00;35.82;101090.75;5078630;28;1047;-42
2023/08/14 06:39:25;;;;;;;;;;;;;;;28.86;36.35;101085.16;5079798;28;1075;-44
2023/08/14 06:41:50;;;;;;;;;;;;;;;28.83;37.24;101082.78;5079352;28;1914;-42
2023/08/14 06:44:18;;;;;;;;;;;;;;;28.80;37.20;101089.44;5057967;28;1183;-42
2023/08/14 06:46:43;;;;;;;;;;;;;;;28.96;36.23;101087.56;5060525;28;1052;-43
2023/08/14 06:49:11;;;;;;;;;;;;;;;28.83;37.26;101099.03;5069335;28;1340;-43
2023/08/14 06:51:37;;;;;;;;;;;;;;;28.87;35.96;101088.69;5061300;28;1087;-42
2023/08/14 06:54:03;;;;;;;;;;;;;;;28.82;35.94;101091.94;5078895;28;1215;-42
2023/08/14 06:56:29;;;;;;;;;;;;;;;28.73;35.54;101085.78;5074136;28;1015;-43
2023/08/14 06:58:55;;;;;;;;;;;;;;;28.99;35.59;101083.66;5067246;28;1133;-42
2023/08/14 07:01:20;;;;;;;;;;;;;;;29.03;35.24;101095.81;5078875;28;1897;-42
2023/08/14 07:03:46;;;;;;;;;;;;;;;28.79;36.38;101090.47;5060988;28;1565;-42
2023/08/14 07:06:11;;;;;;;;;;;;;;;28.81;36.49;101093.00;5078971;28;1066;-42
2023/08/14 07:08:37;;;;;;;;;;;;;;;28.96;35.72;101090.28;5073568;28;1079;-43
2023/08/14 07:11:03;;;;;;;;;;;;;;;28.85;35.90;101103.25;5060165;28;1100;-42
2023/08/14 07:13:29;;;;;;;;;;;;;;;28.88;36.83;101087.66;5079053;28;1170;-42
2023/08/14 07:15:54;;;;;;;;;;;;;;;28.87;36.51;101096.81;5078599;28;1249;-42
2023/08/14 07:18:20;;;;;;;;;;;;;;;28.71;35.89;101091.38;5078486;28;1143;-42
2023/08/14 07:20:45;;;;;;;;;;;;;;;28.92;34.97;101086.25;5073155;28;1954;-43
2023/08/14 07:23:12;;;;;;;;;;;;;;;28.82;35.88;101089.25;5058473;28;1036;-42
2023/08/14 07:25:38;;;;;;;;;;;;;;;28.87;36.41;101088.69;5073718;28;1083;-42
2023/08/14 07:28:04;;;;;;;;;;;;;;;28.99;35.69;101089.09;5077987;28;1071;-43
2023/08/14 07:30:29;;;;;;;;;;;;;;;28.91;36.03;101082.69;5064249;28;1400;-42
2023/08/14 07:32:55;;;;;;;;;;;;;;;28.80;35.24;101083.16;5072597;28;1253;-42
2023/08/14 07:35:20;;;;;;;;;;;;;;;29.10;34.46;101075.06;5060205;28;1156;-43
2023/08/14 07:37:46;;;;;;;;;;;;;;;28.99;35.17;101080.97;5078178;28;1139;-42
2023/08/14 07:40:12;;;;;;;;;;;;;;;28.98;35.82;101084.72;5078205;28;1178;-42
2023/08/14 07:42:37;;;;;;;;;;;;;;;28.97;35.58;101097.41;5078210;28;2011;-42
2023/08/14 07:45:03;;;;;;;;;;;;;;;28.93;35.84;101088.78;5071565;28;1067;-42
2023/08/14 07:47:28;;;;;;;;;;;;;;;28.92;35.87;101095.22;5066952;28;1094;-42
2023/08/14 07:49:54;;;;;;;;;;;;;;;29.00;36.25;101091.59;5077318;28;1059;-42
2023/08/14 07:52:19;;;;;;;;;;;;;;;29.15;35.37;101086.19;5077819;28;1058;-43
2023/08/14 07:54:45;;;;;;;;;;;;;;;28.98;34.90;101096.38;5077920;28;1059;-43
2023/08/14 07:57:10;;;;;;;;;;;;;;;29.29;35.01;101084.50;5068929;28;1272;-42
2023/08/14 07:59:36;;;;;;;;;;;;;;;29.10;35.41;101083.19;5071217;28;1250;-42
2023/08/14 08:02:02;;;;;;;;;;;;;;;29.49;34.49;101097.44;5070453;28;1913;-43
2023/08/14 08:04:29;;;;;;;;;;;;;;;29.61;34.90;101075.28;5070541;28;1053;-40
2023/08/14 08:06:55;;;;;;;;;;;;;;;29.59;34.13;101094.44;5069539;28;1274;-41
2023/08/14 08:09:20;;;;;;;;;;;;;;;29.54;35.49;101107.69;5076361;28;1329;-42
2023/08/14 08:11:46;;;;;;;;;;;;;;;29.53;34.73;101098.72;5072432;28;1059;-42
2023/08/14 08:14:11;;;;;;;;;;;;;;;29.48;35.54;101086.78;5077334;28;1372;-41
2023/08/14 08:16:37;;;;;;;;;;;;;;;29.38;35.06;101096.03;5077752;28;1324;-41
2023/08/14 08:19:06;;;;;;;;;;;;;;;29.15;36.22;101109.72;5063829;28;1129;-44
2023/08/14 08:21:32;;;;;;;;;;;;;;;29.24;35.13;101099.63;5051458;28;1902;-43
2023/08/14 08:23:57;;;;;;;;;;;;;;;29.12;35.24;101097.41;5063906;28;1083;-43
2023/08/14 08:26:23;;;;;;;;;;;;;;;29.05;35.57;101102.72;5070029;28;1087;-43
2023/08/14 08:28:49;;;;;;;;;;;;;;;29.01;36.04;101097.88;5057115;28;1273;-43
2023/08/14 08:31:14;;;;;;;;;;;;;;;29.04;36.34;101103.75;5055712;28;1056;-43
2023/08/14 08:33:40;;;;;;;;;;;;;;;29.24;35.04;101114.00;5062643;28;1591;-43
2023/08/14 08:36:05;;;;;;;;;;;;;;;29.14;35.26;101087.22;5063771;28;1145;-43
2023/08/14 08:38:31;;;;;;;;;;;;;;;28.97;35.85;101097.41;5076850;28;1107;-43
2023/08/14 08:40:57;;;;;;;;;;;;;;;29.31;34.67;101108.69;5076297;28;1914;-43
2023/08/14 08:43:22;;;;;;;;;;;;;;;29.61;33.86;101115.94;5076440;28;1121;-43
2023/08/14 08:45:49;;;;;;;;;;;;;;;29.17;34.12;101110.38;5068472;28;978;-43
2023/08/14 08:48:16;;;;;;;;;;;;;;;29.05;34.86;101104.56;5070350;28;1048;-43
2023/08/14 08:50:42;;;;;;;;;;;;;;;29.03;34.34;101120.19;5059330;28;1043;-44
2023/08/14 08:53:07;;;;;;;;;;;;;;;29.00;34.33;101107.00;5058885;28;1190;-43
2023/08/14 08:55:33;;;;;;;;;;;;;;;29.03;34.68;101102.06;5059168;28;1068;-43
2023/08/14 08:57:59;;;;;;;;;;;;;;;25.49;41.28;101097.47;5047621;28;1367;-43
2023/08/14 09:00:24;;;;;;;;;;;;;;;20.61;51.10;101100.19;5064004;28;980;-42
2023/08/14 09:02:50;;;;;;;;;;;;;;;19.14;54.41;101101.28;5075981;28;1906;-38
2023/08/14 09:05:16;;;;;;;;;;;;;;;19.12;54.81;101092.53;5076108;28;1460;-42
2023/08/14 09:07:41;;;;;;;;;;;;;;;20.54;55.57;101097.19;5063210;28;1530;-42
2023/08/14 09:10:07;;;;;;;;;;;;;;;20.88;55.24;101106.00;5044494;28;2538;-41
2023/08/14 09:12:33;;;;;;;;;;;;;;;20.89;55.48;101102.31;5057855;28;1063;-37
2023/08/14 09:15:05;;;;;;;;;;;;;;;20.91;55.98;101108.41;5075991;28;1050;-40
2023/08/14 09:17:30;;;;;;;;;;;;;;;20.82;55.90;101096.66;5075720;28;1140;-39
2023/08/14 09:19:56;;;;;;;;;;;;;;;20.75;56.15;101101.69;5076482;28;1194;-41
2023/08/14 09:22:22;;;;;;;;;;;;;;;20.74;56.28;101096.47;5060688;28;1991;-41
2023/08/14 09:24:48;;;;;;;;;;;;;;;20.62;56.84;101087.69;5063960;28;1215;-41
2023/08/14 09:27:13;;;;;;;;;;;;;;;20.59;56.89;101085.25;5076104;28;1040;-39
2023/08/14 09:29:39;;;;;;;;;;;;;;;20.55;57.16;101087.38;5076509;28;1090;-41
2023/08/14 09:32:04;;;;;;;;;;;;;;;20.55;57.37;101074.84;5076015;28;1225;-39
2023/08/14 09:34:30;;;;;;;;;;;;;;;20.53;57.97;101089.31;5065244;28;897;-42
2023/08/14 09:36:57;;;;;;;;;;;;;;;20.53;57.98;101079.47;5070472;28;1148;-40
2023/08/14 09:39:25;;;;;;;;;;;;;;;20.55;57.81;101074.00;5073251;28;2492;-44
2023/08/14 09:41:51;;;;;;;;;;;;;;;20.57;58.40;101080.03;5070985;28;1981;-41
2023/08/14 09:44:22;;;;;;;;;;;;;;;20.59;58.80;101078.09;5076264;28;1067;-43
2023/08/14 09:46:49;;;;;;;;;;;;;;;20.61;58.53;101075.28;5063052;28;1159;-41
2023/08/14 09:49:16;;;;;;;;;;;;;;;22.53;53.39;101079.88;5065222;28;1064;-42
2023/08/14 09:51:42;;;;;;;;;;;;;;;25.47;45.46;101088.75;5075945;28;1106;-41
2023/08/14 09:54:07;;;;;;;;;;;;;;;26.65;42.10;101091.41;5069674;28;1179;-43
2023/08/14 09:56:33;;;;;;;;;;;;;;;27.17;41.14;101101.91;5062968;28;1130;-40
2023/08/14 09:58:59;;;;;;;;;;;;;;;27.36;40.60;101092.53;5057149;28;1037;-40
2023/08/14 10:01:24;;;;;;;;;;;;;;;27.57;39.97;101088.38;5079821;28;1969;-41
2023/08/14 10:03:53;;;;;;;;;;;;;;;27.79;39.83;101093.16;5062138;28;1075;-43
2023/08/14 10:06:21;;;;;;;;;;;;;;;27.74;39.79;101082.91;5074023;28;1051;-41
2023/08/14 10:08:47;;;;;;;;;;;;;;;27.85;39.70;101085.19;5032187;28;1076;-40
2023/08/14 10:11:13;;;;;;;;;;;;;;;27.95;39.20;101092.22;5045225;28;1239;-38
2023/08/14 10:13:43;;;;;;;;;;;;;;;28.02;39.48;101084.22;5079653;28;1147;-41
2023/08/14 10:16:09;;;;;;;;;;;;;;;28.10;39.33;101081.44;5062161;28;1310;-38
2023/08/14 10:18:35;;;;;;;;;;;;;;;28.31;38.65;101079.94;5079719;28;1134;-37
2023/08/14 10:21:00;;;;;;;;;;;;;;;28.27;38.72;101087.56;5061431;28;1905;-42
2023/08/14 10:23:26;;;;;;;;;;;;;;;28.23;38.83;101087.09;5045572;28;903;-40
2023/08/14 10:25:51;;;;;;;;;;;;;;;28.30;38.73;101075.53;5077449;28;1063;-41
2023/08/14 10:28:20;;;;;;;;;;;;;;;28.41;39.36;101085.09;5061456;28;1111;-41
2023/08/14 10:30:46;;;;;;;;;;;;;;;28.63;39.07;101090.66;5079976;28;1122;-40
2023/08/14 10:33:12;;;;;;;;;;;;;;;28.46;40.32;101085.41;5079607;28;1222;-39
2023/08/14 10:35:44;;;;;;;;;;;;;;;28.81;39.94;101085.69;5044761;28;1188;-40
2023/08/14 10:38:10;;;;;;;;;;;;;;;28.89;40.44;101087.47;5071303;28;1251;-41
2023/08/14 10:40:35;;;;;;;;;;;;;;;29.17;39.81;101078.72;5079291;28;1241;-44
2023/08/14 10:43:01;;;;;;;;;;;;;;;28.88;40.28;101090.38;5061576;28;1989;-42
2023/08/14 10:45:27;;;;;;;;;;;;;;;28.98;40.69;101084.72;5078430;28;1079;-42
2023/08/14 10:47:53;;;;;;;;;;;;;;;28.81;40.73;101088.41;5061244;28;844;-43
2023/08/14 10:50:20;;;;;;;;;;;;;;;29.16;39.59;101081.59;5077457;28;1055;-42
2023/08/14 10:52:46;;;;;;;;;;;;;;;29.18;40.36;101087.66;5079287;28;1167;-42
2023/08/14 10:55:18;;;;;;;;;;;;;;;29.30;40.44;101071.75;5078107;28;1110;-41
2023/08/14 10:57:44;;;;;;;;;;;;;;;29.39;39.54;101061.66;5078588;28;1103;-41
2023/08/14 11:00:23;;;;;;;;;;;;;;;29.47;39.18;101072.38;5064629;28;1135;-42
2023/08/14 11:02:49;;;;;;;;;;;;;;;29.46;40.94;101060.69;5078085;28;1909;-40
2023/08/14 11:05:16;;;;;;;;;;;;;;;29.49;40.08;101083.03;5058380;28;997;-41
2023/08/14 11:07:44;;;;;;;;;;;;;;;28.89;43.13;101073.09;5073274;28;1179;-42
2023/08/14 11:10:13;;;;;;;;;;;;;;;28.83;42.76;101064.69;5058526;28;1109;-43
2023/08/14 11:12:38;;;;;;;;;;;;;;;28.80;42.87;101066.94;5060426;28;1096;-43
2023/08/14 11:15:04;;;;;;;;;;;;;;;28.78;42.86;101064.41;5078423;28;1067;-44
2023/08/14 11:17:30;;;;;;;;;;;;;;;28.92;42.04;101062.72;5061300;28;1218;-44
2023/08/14 11:19:55;;;;;;;;;;;;;;;28.81;41.48;101063.22;5078365;28;1283;-44
2023/08/14 11:22:22;;;;;;;;;;;;;;;28.81;41.06;101069.44;5077178;28;1910;-42
2023/08/14 11:24:47;;;;;;;;;;;;;;;28.67;40.89;101065.72;5078670;28;1000;-42
2023/08/14 11:27:13;;;;;;;;;;;;;;;29.24;38.46;101062.53;5064672;28;1070;-37
2023/08/14 11:29:38;;;;;;;;;;;;;;;29.61;37.20;101064.44;5078924;28;1204;-40
2023/08/14 11:32:04;;;;;;;;;;;;;;;29.52;36.66;101077.22;5078131;28;1063;-41
2023/08/14 11:34:33;;;;;;;;;;;;;;;29.09;37.40;101063.38;5074875;28;1107;-43
2023/08/14 11:37:02;;;;;;;;;;;;;;;28.62;36.66;101056.47;5059397;28;1556;-42
2023/08/14 11:39:28;;;;;;;;;;;;;;;28.72;36.59;101043.50;5077679;28;1032;-41
2023/08/14 11:41:53;;;;;;;;;;;;;;;28.65;37.86;101053.38;5078032;28;1913;-39
2023/08/14 11:44:19;;;;;;;;;;;;;;;28.94;37.77;101035.47;5078383;28;1194;-40
2023/08/14 11:46:45;;;;;;;;;;;;;;;28.86;37.50;101041.84;5073102;28;1213;-40
2023/08/14 11:49:12;;;;;;;;;;;;;;;28.93;37.60;101039.19;5067183;28;1147;-38
2023/08/14 11:51:38;;;;;;;;;;;;;;;28.71;37.57;101042.66;5077732;28;1098;-41
2023/08/14 11:54:03;;;;;;;;;;;;;;;28.82;37.20;101049.47;5078713;28;1291;-36
2023/08/14 11:56:29;;;;;;;;;;;;;;;29.23;37.60;101050.00;5076941;28;1055;-42
2023/08/14 11:58:55;;;;;;;;;;;;;;;29.58;36.66;101039.34;5071502;28;1138;-38
2023/08/14 12:01:21;;;;;;;;;;;;;;;28.95;36.61;101045.25;5059168;28;1959;-41
2023/08/14 12:03:46;;;;;;;;;;;;;;;28.93;38.35;101045.44;5059578;28;1031;-40
2023/08/14 12:06:12;;;;;;;;;;;;;;;29.36;38.42;101049.34;5077645;28;1182;-42
2023/08/14 12:08:41;;;;;;;;;;;;;;;28.92;39.07;101048.34;5060207;28;1210;-43
2023/08/14 12:11:07;;;;;;;;;;;;;;;28.83;40.08;101048.44;5071025;28;1121;-40
2023/08/14 12:13:35;;;;;;;;;;;;;;;28.76;40.80;101052.09;5067371;28;1164;-42
2023/08/14 12:16:07;;;;;;;;;;;;;;;28.76;41.07;101052.91;5076139;28;1086;-41
2023/08/14 12:18:32;;;;;;;;;;;;;;;28.75;41.21;101045.84;5077124;28;1123;-43
2023/08/14 12:20:58;;;;;;;;;;;;;;;28.75;41.56;101044.97;5077466;28;1898;-42
2023/08/14 12:23:23;;;;;;;;;;;;;;;28.70;41.99;101045.56;5069464;28;1074;-42
2023/08/14 12:25:49;;;;;;;;;;;;;;;28.66;42.14;101036.97;5060531;28;1127;-40
2023/08/14 12:28:15;;;;;;;;;;;;;;;28.75;41.80;101031.44;5077292;28;1123;-42
2023/08/14 12:30:40;;;;;;;;;;;;;;;28.84;41.75;101030.34;5059518;28;1169;-41
2023/08/14 12:33:06;;;;;;;;;;;;;;;28.86;41.46;101028.28;5076710;28;1082;-42
2023/08/14 12:35:32;;;;;;;;;;;;;;;28.87;41.59;101016.41;5069282;28;1189;-41
2023/08/14 12:37:59;;;;;;;;;;;;;;;28.74;42.01;101022.50;5066537;28;1059;-40
2023/08/14 12:40:24;;;;;;;;;;;;;;;28.85;41.99;101018.47;5076328;28;1146;-43
2023/08/14 12:42:50;;;;;;;;;;;;;;;28.86;41.86;101017.47;5058890;28;1910;-42